Schaupps, Nebraska
Current Conditions -  °F | °C
As of 9:53 AM on Wednesday 22 Oct 2014 (Local Time) from KODX Reporting Station
Clear Clear  
Wind Chill: 61°   Ceiling: Unl
Heat Index: 61°   Visibility: 10mi
Dew Point: 54°   Wind: 10mph
Humidity: 78%   Direction: 190°S
Pressure: 29.97"   Gusts: NA
Location:  41.3°N, 98.8143°W
Report Text: KODX 221453Z AUTO 19009KT 10SM CLR 16/12 A2997 RMK AO2 SLP146 T01610122 53005
Loading
Personal Weather Stations






























Interactive Weather Map
Tropical Storm Tracking
New forecast layout! Learn more

10-Day Weather Forecast

Advertisements
Track Severe Weather on mobile